Terminal Aerodrome Forecast
Issued by NWS

Home | Current Version | Previous Version | Text Only | Print | Product List | Glossary On
Versions: 1 2 3 4 5 6 7 8 9 10 11 12 13 14 15 16 17 18 19
000
FTUS43 KILX 271300 AAA
TAFBMI
TAF AMD
KBMI 271349Z 2714/2812 31014KT P6SM VCSH OVC015
     FM272000 30012KT P6SM SCT015
     FM280100 VRB06KT P6SM BKN080=

USA.gov is the U.S. government's official web portal to all federal, state and local government web resources and services.